sensor_id;sensor_type;location;lat;lon;timestamp;P1;durP1;ratioP1;P2;durP2;ratioP2
15183;SDS011;7693;49.266;7.104;2023-10-09T05:30:34;38.50;;;27.33;;
15183;SDS011;7693;49.266;7.104;2023-10-09T05:33:06;40.27;;;31.53;;
15183;SDS011;7693;49.266;7.104;2023-10-09T05:35:50;40.07;;;30.70;;
15183;SDS011;7693;49.266;7.104;2023-10-09T05:38:34;32.60;;;25.40;;
15183;SDS011;7693;49.266;7.104;2023-10-09T05:41:11;34.03;;;24.77;;
15183;SDS011;7693;49.266;7.104;2023-10-09T05:44:12;23.77;;;17.70;;
15183;SDS011;7693;49.266;7.104;2023-10-09T05:46:56;28.33;;;20.17;;
15183;SDS011;7693;49.266;7.104;2023-10-09T05:49:40;27.87;;;19.30;;
15183;SDS011;7693;49.266;7.104;2023-10-09T05:52:12;16.23;;;9.70;;
15183;SDS011;7693;49.266;7.104;2023-10-09T05:55:13;14.87;;;7.67;;
15183;SDS011;7693;49.266;7.104;2023-10-09T05:57:57;10.87;;;6.73;;
15183;SDS011;7693;49.266;7.104;2023-10-09T06:00:42;13.27;;;6.63;;
15183;SDS011;7693;49.266;7.104;2023-10-09T06:03:26;11.53;;;6.83;;
15183;SDS011;7693;49.266;7.104;2023-10-09T06:06:10;11.63;;;6.33;;
15183;SDS011;7693;49.266;7.104;2023-10-09T06:08:43;11.83;;;6.43;;
15183;SDS011;7693;49.266;7.104;2023-10-09T06:11:09;13.50;;;6.93;;
15183;SDS011;7693;49.266;7.104;2023-10-09T06:13:55;11.53;;;6.73;;
15183;SDS011;7693;49.266;7.104;2023-10-09T06:16:34;10.10;;;7.27;;
15183;SDS011;7693;49.266;7.104;2023-10-09T06:19:21;28.97;;;20.80;;
15183;SDS011;7693;49.266;7.104;2023-10-09T06:21:47;39.60;;;31.00;;
15183;SDS011;7693;49.266;7.104;2023-10-09T06:24:19;46.47;;;37.33;;
15183;SDS011;7693;49.266;7.104;2023-10-09T06:26:45;47.67;;;37.43;;
15183;SDS011;7693;49.266;7.104;2023-10-09T06:29:27;60.10;;;43.70;;
15183;SDS011;7693;49.266;7.104;2023-10-09T06:32:12;61.13;;;47.27;;
15183;SDS011;7693;49.266;7.104;2023-10-09T06:34:43;64.07;;;51.83;;
15183;SDS011;7693;49.266;7.104;2023-10-09T06:37:11;59.30;;;51.93;;
15183;SDS011;7693;49.266;7.104;2023-10-09T06:39:50;59.47;;;50.93;;
15183;SDS011;7693;49.266;7.104;2023-10-09T06:42:36;58.73;;;47.57;;
15183;SDS011;7693;49.266;7.104;2023-10-09T06:45:05;50.73;;;42.37;;
15183;SDS011;7693;49.266;7.104;2023-10-09T06:47:39;43.43;;;35.87;;
15183;SDS011;7693;49.266;7.104;2023-10-09T06:50:18;44.73;;;35.77;;
15183;SDS011;7693;49.266;7.104;2023-10-09T06:52:49;38.97;;;30.87;;
15183;SDS011;7693;49.266;7.104;2023-10-09T06:55:22;41.93;;;31.77;;
15183;SDS011;7693;49.266;7.104;2023-10-09T06:57:58;44.37;;;34.70;;
15183;SDS011;7693;49.266;7.104;2023-10-09T07:00:26;54.00;;;41.87;;
15183;SDS011;7693;49.266;7.104;2023-10-09T07:03:11;62.93;;;49.30;;
15183;SDS011;7693;49.266;7.104;2023-10-09T07:05:38;60.27;;;50.93;;
15183;SDS011;7693;49.266;7.104;2023-10-09T07:08:24;60.20;;;53.00;;
15183;SDS011;7693;49.266;7.104;2023-10-09T07:11:02;62.97;;;53.57;;
15183;SDS011;7693;49.266;7.104;2023-10-09T07:13:46;61.10;;;53.10;;
15183;SDS011;7693;49.266;7.104;2023-10-09T07:16:22;56.27;;;47.43;;
15183;SDS011;7693;49.266;7.104;2023-10-09T07:19:03;59.80;;;41.77;;
15183;SDS011;7693;49.266;7.104;2023-10-09T07:21:35;43.17;;;33.83;;
15183;SDS011;7693;49.266;7.104;2023-10-09T07:24:04;42.77;;;32.50;;
15183;SDS011;7693;49.266;7.104;2023-10-09T07:26:42;31.03;;;20.07;;
15183;SDS011;7693;49.266;7.104;2023-10-09T07:29:18;17.00;;;9.17;;
15183;SDS011;7693;49.266;7.104;2023-10-09T07:31:48;14.33;;;8.43;;
15183;SDS011;7693;49.266;7.104;2023-10-09T07:34:22;12.83;;;7.47;;
15183;SDS011;7693;49.266;7.104;2023-10-09T07:37:17;10.97;;;7.27;;
15183;SDS011;7693;49.266;7.104;2023-10-09T07:40:02;12.73;;;8.80;;
15183;SDS011;7693;49.266;7.104;2023-10-09T07:42:32;15.80;;;9.67;;
15183;SDS011;7693;49.266;7.104;2023-10-09T07:45:08;13.13;;;7.77;;
15183;SDS011;7693;49.266;7.104;2023-10-09T07:47:45;12.50;;;6.50;;
15183;SDS011;7693;49.266;7.104;2023-10-09T07:50:36;11.10;;;6.20;;
15183;SDS011;7693;49.266;7.104;2023-10-09T07:53:05;18.23;;;6.27;;
15183;SDS011;7693;49.266;7.104;2023-10-09T07:55:43;12.23;;;6.30;;
15183;SDS011;7693;49.266;7.104;2023-10-09T07:58:19;8.67;;;5.53;;
15183;SDS011;7693;49.266;7.104;2023-10-09T08:00:51;14.13;;;6.75;;
15183;SDS011;7693;49.266;7.104;2023-10-09T08:03:35;13.97;;;6.20;;
15183;SDS011;7693;49.266;7.104;2023-10-09T08:06:01;12.30;;;5.67;;
15183;SDS011;7693;49.266;7.104;2023-10-09T08:08:46;14.90;;;6.03;;
15183;SDS011;7693;49.266;7.104;2023-10-09T08:11:26;16.63;;;6.37;;
15183;SDS011;7693;49.266;7.104;2023-10-09T08:14:14;11.23;;;5.93;;
15183;SDS011;7693;49.266;7.104;2023-10-09T08:16:58;11.73;;;5.43;;
15183;SDS011;7693;49.266;7.104;2023-10-09T08:24:52;11.13;;;5.85;;
15183;SDS011;7693;49.266;7.104;2023-10-09T08:27:21;16.58;;;6.35;;
15183;SDS011;7693;49.266;7.104;2023-10-09T08:29:58;10.48;;;5.85;;
15183;SDS011;7693;49.266;7.104;2023-10-09T08:32:42;12.52;;;5.88;;
15183;SDS011;7693;49.266;7.104;2023-10-09T08:35:18;15.52;;;6.10;;
15183;SDS011;7693;49.266;7.104;2023-10-09T08:37:55;10.13;;;6.32;;
15183;SDS011;7693;49.266;7.104;2023-10-09T08:40:35;11.38;;;6.30;;
15183;SDS011;7693;49.266;7.104;2023-10-09T08:45:38;11.02;;;6.22;;
15183;SDS011;7693;49.266;7.104;2023-10-09T08:48:05;14.35;;;5.60;;
15183;SDS011;7693;49.266;7.104;2023-10-09T08:50:40;13.85;;;6.13;;
15183;SDS011;7693;49.266;7.104;2023-10-09T08:53:07;6.95;;;5.05;;
15183;SDS011;7693;49.266;7.104;2023-10-09T08:55:36;7.50;;;4.63;;
15183;SDS011;7693;49.266;7.104;2023-10-09T08:58:03;9.30;;;5.05;;
15183;SDS011;7693;49.266;7.104;2023-10-09T09:01:08;9.68;;;5.10;;
15183;SDS011;7693;49.266;7.104;2023-10-09T09:03:40;20.23;;;5.60;;
15183;SDS011;7693;49.266;7.104;2023-10-09T09:06:08;9.63;;;5.30;;
15183;SDS011;7693;49.266;7.104;2023-10-09T09:08:34;11.70;;;5.43;;
15183;SDS011;7693;49.266;7.104;2023-10-09T09:11:03;14.10;;;5.75;;
15183;SDS011;7693;49.266;7.104;2023-10-09T09:13:46;8.80;;;4.80;;
15183;SDS011;7693;49.266;7.104;2023-10-09T09:16:20;6.50;;;4.93;;
15183;SDS011;7693;49.266;7.104;2023-10-09T09:18:50;12.23;;;5.20;;
15183;SDS011;7693;49.266;7.104;2023-10-09T09:21:25;10.40;;;6.30;;
15183;SDS011;7693;49.266;7.104;2023-10-09T09:24:01;15.15;;;6.43;;
15183;SDS011;7693;49.266;7.104;2023-10-09T09:26:34;8.20;;;4.78;;
15183;SDS011;7693;49.266;7.104;2023-10-09T09:29:09;9.68;;;4.72;;
15183;SDS011;7693;49.266;7.104;2023-10-09T09:31:36;6.68;;;4.75;;
15183;SDS011;7693;49.266;7.104;2023-10-09T09:34:07;8.50;;;5.30;;
15183;SDS011;7693;49.266;7.104;2023-10-09T09:36:55;11.35;;;5.03;;
15183;SDS011;7693;49.266;7.104;2023-10-09T09:39:22;13.15;;;4.95;;
15183;SDS011;7693;49.266;7.104;2023-10-09T09:41:56;6.03;;;5.05;;
15183;SDS011;7693;49.266;7.104;2023-10-09T09:44:42;8.88;;;5.00;;
15183;SDS011;7693;49.266;7.104;2023-10-09T09:47:13;12.68;;;5.05;;
15183;SDS011;7693;49.266;7.104;2023-10-09T09:50:00;9.25;;;4.70;;
15183;SDS011;7693;49.266;7.104;2023-10-09T09:52:49;12.43;;;5.07;;
15183;SDS011;7693;49.266;7.104;2023-10-09T09:55:21;13.05;;;5.03;;
15183;SDS011;7693;49.266;7.104;2023-10-09T09:57:56;10.85;;;4.72;;
15183;SDS011;7693;49.266;7.104;2023-10-09T10:00:25;10.93;;;5.05;;
15183;SDS011;7693;49.266;7.104;2023-10-09T10:06:05;12.43;;;5.03;;
15183;SDS011;7693;49.266;7.104;2023-10-09T10:08:35;10.95;;;4.60;;
15183;SDS011;7693;49.266;7.104;2023-10-09T10:11:04;12.70;;;4.65;;
15183;SDS011;7693;49.266;7.104;2023-10-09T10:13:54;13.05;;;5.40;;
15183;SDS011;7693;49.266;7.104;2023-10-09T10:16:23;11.30;;;5.45;;
15183;SDS011;7693;49.266;7.104;2023-10-09T10:21:19;14.40;;;6.78;;
15183;SDS011;7693;49.266;7.104;2023-10-09T10:24:01;12.00;;;4.45;;
15183;SDS011;7693;49.266;7.104;2023-10-09T10:26:32;8.63;;;5.20;;
15183;SDS011;7693;49.266;7.104;2023-10-09T10:29:17;14.63;;;5.38;;
15183;SDS011;7693;49.266;7.104;2023-10-09T10:31:59;10.15;;;4.82;;
15183;SDS011;7693;49.266;7.104;2023-10-09T10:37:21;7.22;;;4.82;;
15183;SDS011;7693;49.266;7.104;2023-10-09T10:39:58;10.07;;;5.15;;
15183;SDS011;7693;49.266;7.104;2023-10-09T10:42:28;18.45;;;5.25;;
15183;SDS011;7693;49.266;7.104;2023-10-09T10:45:02;12.30;;;5.35;;
15183;SDS011;7693;49.266;7.104;2023-10-09T10:47:48;11.32;;;5.72;;
15183;SDS011;7693;49.266;7.104;2023-10-09T10:50:17;9.45;;;5.03;;
15183;SDS011;7693;49.266;7.104;2023-10-09T10:53:13;10.55;;;4.80;;
15183;SDS011;7693;49.266;7.104;2023-10-09T10:55:55;11.18;;;5.28;;
15183;SDS011;7693;49.266;7.104;2023-10-09T10:58:40;12.93;;;5.03;;
15183;SDS011;7693;49.266;7.104;2023-10-09T11:01:39;8.10;;;5.00;;
15183;SDS011;7693;49.266;7.104;2023-10-09T11:04:25;9.85;;;4.50;;
15183;SDS011;7693;49.266;7.104;2023-10-09T11:06:55;12.73;;;5.07;;
15183;SDS011;7693;49.266;7.104;2023-10-09T11:09:26;8.63;;;4.65;;
15183;SDS011;7693;49.266;7.104;2023-10-09T11:12:06;5.60;;;4.82;;
15183;SDS011;7693;49.266;7.104;2023-10-09T11:14:48;10.68;;;5.38;;
15183;SDS011;7693;49.266;7.104;2023-10-09T11:17:37;9.32;;;5.10;;
15183;SDS011;7693;49.266;7.104;2023-10-09T11:20:06;5.68;;;4.70;;
15183;SDS011;7693;49.266;7.104;2023-10-09T11:22:49;13.52;;;5.07;;
15183;SDS011;7693;49.266;7.104;2023-10-09T11:25:36;10.35;;;5.63;;
15183;SDS011;7693;49.266;7.104;2023-10-09T11:28:21;9.75;;;5.35;;
15183;SDS011;7693;49.266;7.104;2023-10-09T11:31:10;14.95;;;5.57;;
15183;SDS011;7693;49.266;7.104;2023-10-09T11:36:16;12.48;;;5.55;;
15183;SDS011;7693;49.266;7.104;2023-10-09T11:38:59;9.52;;;5.40;;
15183;SDS011;7693;49.266;7.104;2023-10-09T11:41:47;12.27;;;4.63;;
15183;SDS011;7693;49.266;7.104;2023-10-09T11:44:14;8.07;;;4.45;;
15183;SDS011;7693;49.266;7.104;2023-10-09T11:47:00;6.35;;;4.60;;
15183;SDS011;7693;49.266;7.104;2023-10-09T11:49:50;10.38;;;5.25;;
15183;SDS011;7693;49.266;7.104;2023-10-09T11:52:29;10.50;;;4.65;;
15183;SDS011;7693;49.266;7.104;2023-10-09T11:55:03;12.13;;;4.88;;
15183;SDS011;7693;49.266;7.104;2023-10-09T11:57:31;7.63;;;4.85;;
15183;SDS011;7693;49.266;7.104;2023-10-09T11:59:59;8.45;;;5.15;;
15183;SDS011;7693;49.266;7.104;2023-10-09T12:02:25;7.75;;;4.57;;
15183;SDS011;7693;49.266;7.104;2023-10-09T12:04:51;8.18;;;4.53;;
15183;SDS011;7693;49.266;7.104;2023-10-09T12:07:17;5.85;;;4.45;;
15183;SDS011;7693;49.266;7.104;2023-10-09T12:09:45;8.93;;;4.50;;
15183;SDS011;7693;49.266;7.104;2023-10-09T12:12:12;11.80;;;5.03;;
15183;SDS011;7693;49.266;7.104;2023-10-09T12:14:38;7.63;;;5.03;;
15183;SDS011;7693;49.266;7.104;2023-10-09T12:17:04;9.73;;;4.47;;
15183;SDS011;7693;49.266;7.104;2023-10-09T12:19:34;9.35;;;4.70;;
15183;SDS011;7693;49.266;7.104;2023-10-09T12:22:01;6.32;;;4.60;;
15183;SDS011;7693;49.266;7.104;2023-10-09T12:24:31;7.07;;;4.40;;
15183;SDS011;7693;49.266;7.104;2023-10-09T12:26:58;10.52;;;4.80;;
15183;SDS011;7693;49.266;7.104;2023-10-09T12:29:24;8.30;;;4.55;;
15183;SDS011;7693;49.266;7.104;2023-10-09T12:31:55;6.05;;;4.30;;
15183;SDS011;7693;49.266;7.104;2023-10-09T12:34:26;8.02;;;4.70;;
15183;SDS011;7693;49.266;7.104;2023-10-09T12:36:56;8.25;;;4.68;;
15183;SDS011;7693;49.266;7.104;2023-10-09T12:39:26;7.45;;;4.38;;
15183;SDS011;7693;49.266;7.104;2023-10-09T12:41:58;8.55;;;4.63;;
15183;SDS011;7693;49.266;7.104;2023-10-09T12:44:37;9.63;;;4.95;;
15183;SDS011;7693;49.266;7.104;2023-10-09T12:47:06;7.50;;;4.97;;
15183;SDS011;7693;49.266;7.104;2023-10-09T12:49:32;6.07;;;4.40;;
15183;SDS011;7693;49.266;7.104;2023-10-09T12:51:57;8.25;;;4.65;;
15183;SDS011;7693;49.266;7.104;2023-10-09T12:54:26;7.18;;;4.63;;
15183;SDS011;7693;49.266;7.104;2023-10-09T12:56:53;5.55;;;4.30;;
15183;SDS011;7693;49.266;7.104;2023-10-09T12:59:19;7.97;;;4.25;;
15183;SDS011;7693;49.266;7.104;2023-10-09T13:01:45;8.85;;;4.85;;
15183;SDS011;7693;49.266;7.104;2023-10-09T13:04:16;6.28;;;4.50;;
15183;SDS011;7693;49.266;7.104;2023-10-09T13:06:43;7.65;;;4.90;;
15183;SDS011;7693;49.266;7.104;2023-10-09T13:09:10;4.97;;;4.55;;
15183;SDS011;7693;49.266;7.104;2023-10-09T13:11:38;5.82;;;4.95;;
15183;SDS011;7693;49.266;7.104;2023-10-09T13:14:05;7.35;;;4.50;;
15183;SDS011;7693;49.266;7.104;2023-10-09T13:16:46;5.28;;;4.10;;
15183;SDS011;7693;49.266;7.104;2023-10-09T13:19:15;8.05;;;4.85;;
15183;SDS011;7693;49.266;7.104;2023-10-09T13:21:42;6.85;;;4.82;;
15183;SDS011;7693;49.266;7.104;2023-10-09T13:24:08;6.35;;;4.82;;
15183;SDS011;7693;49.266;7.104;2023-10-09T13:26:49;11.85;;;4.88;;
15183;SDS011;7693;49.266;7.104;2023-10-09T13:29:18;5.60;;;4.72;;
15183;SDS011;7693;49.266;7.104;2023-10-09T13:31:49;6.03;;;3.88;;
15183;SDS011;7693;49.266;7.104;2023-10-09T13:34:22;6.15;;;4.53;;
15183;SDS011;7693;49.266;7.104;2023-10-09T13:36:53;6.32;;;4.65;;
15183;SDS011;7693;49.266;7.104;2023-10-09T13:39:19;7.03;;;4.35;;
15183;SDS011;7693;49.266;7.104;2023-10-09T13:41:47;5.28;;;4.63;;
15183;SDS011;7693;49.266;7.104;2023-10-09T13:44:14;5.05;;;4.40;;
15183;SDS011;7693;49.266;7.104;2023-10-09T13:46:40;4.95;;;4.45;;
15183;SDS011;7693;49.266;7.104;2023-10-09T13:49:10;6.63;;;4.85;;
15183;SDS011;7693;49.266;7.104;2023-10-09T13:51:42;7.50;;;4.32;;
15183;SDS011;7693;49.266;7.104;2023-10-09T13:54:12;7.70;;;4.50;;
15183;SDS011;7693;49.266;7.104;2023-10-09T13:57:05;9.63;;;4.47;;
15183;SDS011;7693;49.266;7.104;2023-10-09T13:59:33;12.40;;;5.00;;
15183;SDS011;7693;49.266;7.104;2023-10-09T14:02:08;7.63;;;4.45;;
15183;SDS011;7693;49.266;7.104;2023-10-09T14:04:42;6.18;;;4.28;;
15183;SDS011;7693;49.266;7.104;2023-10-09T14:07:08;8.88;;;4.35;;
15183;SDS011;7693;49.266;7.104;2023-10-09T14:09:34;12.07;;;4.78;;
15183;SDS011;7693;49.266;7.104;2023-10-09T14:12:04;6.85;;;4.43;;
15183;SDS011;7693;49.266;7.104;2023-10-09T14:17:12;8.10;;;4.78;;
15183;SDS011;7693;49.266;7.104;2023-10-09T14:22:06;9.70;;;4.90;;
15183;SDS011;7693;49.266;7.104;2023-10-09T14:24:32;5.78;;;4.70;;
15183;SDS011;7693;49.266;7.104;2023-10-09T14:27:00;8.15;;;4.88;;
15183;SDS011;7693;49.266;7.104;2023-10-09T14:29:29;7.72;;;4.68;;
15183;SDS011;7693;49.266;7.104;2023-10-09T14:31:55;9.75;;;5.05;;
15183;SDS011;7693;49.266;7.104;2023-10-09T14:34:27;7.85;;;4.95;;
15183;SDS011;7693;49.266;7.104;2023-10-09T14:36:58;8.65;;;5.03;;
15183;SDS011;7693;49.266;7.104;2023-10-09T14:39:25;7.60;;;4.93;;
15183;SDS011;7693;49.266;7.104;2023-10-09T14:41:52;7.75;;;5.65;;
15183;SDS011;7693;49.266;7.104;2023-10-09T14:44:20;8.88;;;5.00;;
15183;SDS011;7693;49.266;7.104;2023-10-09T14:46:46;7.10;;;5.07;;
15183;SDS011;7693;49.266;7.104;2023-10-09T14:49:14;6.38;;;4.93;;
15183;SDS011;7693;49.266;7.104;2023-10-09T14:51:40;7.72;;;4.97;;
15183;SDS011;7693;49.266;7.104;2023-10-09T14:54:09;11.23;;;5.85;;
15183;SDS011;7693;49.266;7.104;2023-10-09T14:56:35;6.25;;;4.95;;
15183;SDS011;7693;49.266;7.104;2023-10-09T14:59:02;9.23;;;4.63;;
15183;SDS011;7693;49.266;7.104;2023-10-09T15:01:28;5.57;;;5.05;;
15183;SDS011;7693;49.266;7.104;2023-10-09T15:04:00;5.60;;;4.72;;
15183;SDS011;7693;49.266;7.104;2023-10-09T15:06:26;6.63;;;5.20;;
15183;SDS011;7693;49.266;7.104;2023-10-09T15:08:53;7.40;;;5.07;;
15183;SDS011;7693;49.266;7.104;2023-10-09T15:11:26;13.55;;;5.13;;
15183;SDS011;7693;49.266;7.104;2023-10-09T15:13:53;10.93;;;5.28;;
15183;SDS011;7693;49.266;7.104;2023-10-09T15:16:21;26.38;;;7.10;;
15183;SDS011;7693;49.266;7.104;2023-10-09T15:18:47;7.43;;;4.90;;
15183;SDS011;7693;49.266;7.104;2023-10-09T15:21:18;5.28;;;4.70;;
15183;SDS011;7693;49.266;7.104;2023-10-09T15:23:47;5.80;;;5.22;;
15183;SDS011;7693;49.266;7.104;2023-10-09T15:26:15;8.80;;;5.50;;
15183;SDS011;7693;49.266;7.104;2023-10-09T15:28:42;9.27;;;4.88;;
15183;SDS011;7693;49.266;7.104;2023-10-09T15:31:08;7.50;;;5.25;;
15183;SDS011;7693;49.266;7.104;2023-10-09T15:33:36;7.50;;;4.78;;
15183;SDS011;7693;49.266;7.104;2023-10-09T15:36:14;17.10;;;5.93;;
15183;SDS011;7693;49.266;7.104;2023-10-09T15:38:43;7.50;;;4.93;;
15183;SDS011;7693;49.266;7.104;2023-10-09T15:41:08;9.68;;;5.55;;
15183;SDS011;7693;49.266;7.104;2023-10-09T15:43:35;13.25;;;5.78;;
15183;SDS011;7693;49.266;7.104;2023-10-09T15:46:00;7.40;;;5.60;;
15183;SDS011;7693;49.266;7.104;2023-10-09T15:48:26;9.38;;;5.93;;
15183;SDS011;7693;49.266;7.104;2023-10-09T15:50:52;11.07;;;5.20;;
15183;SDS011;7693;49.266;7.104;2023-10-09T15:53:18;8.65;;;5.07;;
15183;SDS011;7693;49.266;7.104;2023-10-09T15:55:44;11.98;;;5.45;;
15183;SDS011;7693;49.266;7.104;2023-10-09T15:58:10;8.23;;;5.70;;
15183;SDS011;7693;49.266;7.104;2023-10-09T16:00:36;9.88;;;4.97;;
15183;SDS011;7693;49.266;7.104;2023-10-09T16:03:02;10.07;;;4.88;;
15183;SDS011;7693;49.266;7.104;2023-10-09T16:05:29;10.55;;;5.47;;
15183;SDS011;7693;49.266;7.104;2023-10-09T16:07:56;8.63;;;5.82;;
15183;SDS011;7693;49.266;7.104;2023-10-09T16:10:22;9.68;;;5.63;;
15183;SDS011;7693;49.266;7.104;2023-10-09T16:12:50;9.48;;;5.97;;
15183;SDS011;7693;49.266;7.104;2023-10-09T16:15:18;10.73;;;5.68;;
15183;SDS011;7693;49.266;7.104;2023-10-09T16:17:48;7.45;;;4.93;;
15183;SDS011;7693;49.266;7.104;2023-10-09T16:20:23;9.73;;;5.20;;
15183;SDS011;7693;49.266;7.104;2023-10-09T16:22:52;10.35;;;5.70;;
15183;SDS011;7693;49.266;7.104;2023-10-09T16:25:18;8.85;;;5.03;;
15183;SDS011;7693;49.266;7.104;2023-10-09T16:27:48;13.00;;;5.60;;
15183;SDS011;7693;49.266;7.104;2023-10-09T16:30:15;8.20;;;5.60;;
15183;SDS011;7693;49.266;7.104;2023-10-09T16:32:46;10.13;;;5.90;;
15183;SDS011;7693;49.266;7.104;2023-10-09T16:35:12;6.32;;;5.57;;
15183;SDS011;7693;49.266;7.104;2023-10-09T16:37:37;7.13;;;5.05;;
15183;SDS011;7693;49.266;7.104;2023-10-09T16:40:03;8.35;;;5.57;;
15183;SDS011;7693;49.266;7.104;2023-10-09T16:42:39;6.70;;;5.40;;
15183;SDS011;7693;49.266;7.104;2023-10-09T16:45:07;7.18;;;6.20;;
15183;SDS011;7693;49.266;7.104;2023-10-09T16:47:41;6.30;;;5.28;;
15183;SDS011;7693;49.266;7.104;2023-10-09T16:50:10;8.07;;;5.43;;
15183;SDS011;7693;49.266;7.104;2023-10-09T16:52:36;9.07;;;4.97;;
15183;SDS011;7693;49.266;7.104;2023-10-09T16:55:05;11.27;;;7.43;;
15183;SDS011;7693;49.266;7.104;2023-10-09T16:57:34;9.43;;;6.32;;
15183;SDS011;7693;49.266;7.104;2023-10-09T17:00:04;7.35;;;5.78;;
15183;SDS011;7693;49.266;7.104;2023-10-09T17:03:02;7.63;;;5.75;;
15183;SDS011;7693;49.266;7.104;2023-10-09T17:05:32;9.13;;;5.85;;
15183;SDS011;7693;49.266;7.104;2023-10-09T17:08:01;7.85;;;6.18;;
15183;SDS011;7693;49.266;7.104;2023-10-09T17:10:32;9.30;;;5.90;;
15183;SDS011;7693;49.266;7.104;2023-10-09T17:13:00;12.27;;;5.25;;
15183;SDS011;7693;49.266;7.104;2023-10-09T17:15:26;7.57;;;5.32;;
15183;SDS011;7693;49.266;7.104;2023-10-09T17:17:58;7.25;;;6.03;;
15183;SDS011;7693;49.266;7.104;2023-10-09T17:20:25;7.30;;;5.53;;
15183;SDS011;7693;49.266;7.104;2023-10-09T17:22:52;11.15;;;7.20;;
15183;SDS011;7693;49.266;7.104;2023-10-09T17:25:25;6.78;;;5.80;;
15183;SDS011;7693;49.266;7.104;2023-10-09T17:27:51;6.93;;;5.40;;
15183;SDS011;7693;49.266;7.104;2023-10-09T17:30:19;13.27;;;6.25;;
15183;SDS011;7693;49.266;7.104;2023-10-09T17:32:45;6.60;;;5.90;;
15183;SDS011;7693;49.266;7.104;2023-10-09T17:35:14;12.00;;;5.97;;
15183;SDS011;7693;49.266;7.104;2023-10-09T17:37:42;9.55;;;6.22;;
15183;SDS011;7693;49.266;7.104;2023-10-09T17:40:10;8.80;;;5.88;;
15183;SDS011;7693;49.266;7.104;2023-10-09T17:42:37;8.48;;;6.22;;
15183;SDS011;7693;49.266;7.104;2023-10-09T17:45:06;7.25;;;6.35;;
15183;SDS011;7693;49.266;7.104;2023-10-09T17:47:32;10.70;;;6.68;;
15183;SDS011;7693;49.266;7.104;2023-10-09T17:50:02;7.38;;;6.55;;
15183;SDS011;7693;49.266;7.104;2023-10-09T17:52:37;8.18;;;5.95;;
15183;SDS011;7693;49.266;7.104;2023-10-09T17:55:04;12.73;;;5.78;;
15183;SDS011;7693;49.266;7.104;2023-10-09T17:57:36;11.25;;;9.30;;
15183;SDS011;7693;49.266;7.104;2023-10-09T18:00:06;9.95;;;5.82;;
15183;SDS011;7693;49.266;7.104;2023-10-09T18:02:34;10.65;;;5.90;;
15183;SDS011;7693;49.266;7.104;2023-10-09T18:05:00;8.93;;;6.28;;
15183;SDS011;7693;49.266;7.104;2023-10-09T18:07:26;9.95;;;5.97;;
15183;SDS011;7693;49.266;7.104;2023-10-09T18:09:52;6.95;;;5.97;;
15183;SDS011;7693;49.266;7.104;2023-10-09T18:12:19;8.77;;;5.60;;
15183;SDS011;7693;49.266;7.104;2023-10-09T18:14:46;7.38;;;5.82;;
15183;SDS011;7693;49.266;7.104;2023-10-09T18:17:16;9.98;;;6.18;;
15183;SDS011;7693;49.266;7.104;2023-10-09T18:19:45;9.98;;;6.03;;
15183;SDS011;7693;49.266;7.104;2023-10-09T18:22:16;11.85;;;6.18;;
15183;SDS011;7693;49.266;7.104;2023-10-09T18:24:42;11.68;;;6.13;;
15183;SDS011;7693;49.266;7.104;2023-10-09T18:27:08;8.05;;;5.85;;
15183;SDS011;7693;49.266;7.104;2023-10-09T18:29:36;12.70;;;6.13;;
15183;SDS011;7693;49.266;7.104;2023-10-09T18:32:03;7.50;;;6.63;;
15183;SDS011;7693;49.266;7.104;2023-10-09T18:34:28;8.60;;;7.28;;
15183;SDS011;7693;49.266;7.104;2023-10-09T18:36:57;8.32;;;6.50;;
15183;SDS011;7693;49.266;7.104;2023-10-09T18:39:23;8.60;;;6.45;;
15183;SDS011;7693;49.266;7.104;2023-10-09T18:41:49;9.30;;;6.15;;
15183;SDS011;7693;49.266;7.104;2023-10-09T18:44:16;10.88;;;6.40;;
15183;SDS011;7693;49.266;7.104;2023-10-09T18:46:44;9.13;;;6.63;;
15183;SDS011;7693;49.266;7.104;2023-10-09T18:49:12;14.50;;;6.90;;
15183;SDS011;7693;49.266;7.104;2023-10-09T18:51:38;14.40;;;7.47;;
15183;SDS011;7693;49.266;7.104;2023-10-09T18:54:03;9.68;;;7.10;;
15183;SDS011;7693;49.266;7.104;2023-10-09T18:56:30;13.05;;;6.90;;
15183;SDS011;7693;49.266;7.104;2023-10-09T18:58:57;11.02;;;6.90;;
15183;SDS011;7693;49.266;7.104;2023-10-09T19:01:32;10.90;;;6.13;;
15183;SDS011;7693;49.266;7.104;2023-10-09T19:04:00;9.15;;;6.57;;
15183;SDS011;7693;49.266;7.104;2023-10-09T19:06:26;14.02;;;6.22;;
15183;SDS011;7693;49.266;7.104;2023-10-09T19:08:53;7.05;;;6.32;;
15183;SDS011;7693;49.266;7.104;2023-10-09T19:11:20;8.63;;;5.80;;
15183;SDS011;7693;49.266;7.104;2023-10-09T19:13:48;7.70;;;6.45;;
15183;SDS011;7693;49.266;7.104;2023-10-09T19:16:14;7.43;;;5.72;;
15183;SDS011;7693;49.266;7.104;2023-10-09T19:18:40;8.48;;;5.97;;
15183;SDS011;7693;49.266;7.104;2023-10-09T19:21:10;6.97;;;5.78;;
15183;SDS011;7693;49.266;7.104;2023-10-09T19:23:40;8.20;;;5.43;;
15183;SDS011;7693;49.266;7.104;2023-10-09T19:26:09;11.05;;;6.38;;
15183;SDS011;7693;49.266;7.104;2023-10-09T19:28:35;10.50;;;6.68;;
15183;SDS011;7693;49.266;7.104;2023-10-09T19:33:31;13.75;;;6.32;;
15183;SDS011;7693;49.266;7.104;2023-10-09T19:36:04;9.82;;;5.88;;
15183;SDS011;7693;49.266;7.104;2023-10-09T19:38:42;10.18;;;6.70;;
15183;SDS011;7693;49.266;7.104;2023-10-09T19:41:15;8.27;;;5.88;;
15183;SDS011;7693;49.266;7.104;2023-10-09T19:43:44;9.98;;;5.82;;
15183;SDS011;7693;49.266;7.104;2023-10-09T19:46:10;7.78;;;5.63;;
15183;SDS011;7693;49.266;7.104;2023-10-09T19:48:40;9.40;;;6.47;;
15183;SDS011;7693;49.266;7.104;2023-10-09T19:51:15;12.15;;;6.20;;
15183;SDS011;7693;49.266;7.104;2023-10-09T19:53:43;7.78;;;6.05;;
15183;SDS011;7693;49.266;7.104;2023-10-09T19:56:09;13.15;;;6.55;;
15183;SDS011;7693;49.266;7.104;2023-10-09T19:58:36;15.95;;;6.43;;
15183;SDS011;7693;49.266;7.104;2023-10-09T20:01:09;7.10;;;6.18;;
15183;SDS011;7693;49.266;7.104;2023-10-09T20:03:39;7.57;;;5.35;;
15183;SDS011;7693;49.266;7.104;2023-10-09T20:06:05;9.75;;;6.28;;
15183;SDS011;7693;49.266;7.104;2023-10-09T20:08:31;10.75;;;5.88;;
15183;SDS011;7693;49.266;7.104;2023-10-09T20:11:03;10.57;;;6.38;;
15183;SDS011;7693;49.266;7.104;2023-10-09T20:13:31;12.48;;;5.85;;
15183;SDS011;7693;49.266;7.104;2023-10-09T20:15:58;6.25;;;5.65;;
15183;SDS011;7693;49.266;7.104;2023-10-09T20:18:24;7.50;;;5.70;;
15183;SDS011;7693;49.266;7.104;2023-10-09T20:20:50;9.82;;;5.70;;
15183;SDS011;7693;49.266;7.104;2023-10-09T20:23:16;11.50;;;5.93;;
15183;SDS011;7693;49.266;7.104;2023-10-09T20:25:42;8.32;;;6.00;;
15183;SDS011;7693;49.266;7.104;2023-10-09T20:28:10;9.15;;;5.80;;
15183;SDS011;7693;49.266;7.104;2023-10-09T20:30:36;15.18;;;6.82;;
15183;SDS011;7693;49.266;7.104;2023-10-09T20:33:02;9.60;;;5.75;;
15183;SDS011;7693;49.266;7.104;2023-10-09T20:35:28;8.85;;;5.70;;
15183;SDS011;7693;49.266;7.104;2023-10-09T20:37:55;10.00;;;6.13;;
15183;SDS011;7693;49.266;7.104;2023-10-09T20:40:22;7.88;;;5.55;;
15183;SDS011;7693;49.266;7.104;2023-10-09T20:42:49;9.68;;;5.57;;
15183;SDS011;7693;49.266;7.104;2023-10-09T20:45:18;8.02;;;5.75;;
15183;SDS011;7693;49.266;7.104;2023-10-09T20:47:48;5.93;;;5.30;;
15183;SDS011;7693;49.266;7.104;2023-10-09T20:50:21;6.63;;;5.53;;
15183;SDS011;7693;49.266;7.104;2023-10-09T20:52:47;5.95;;;5.22;;
15183;SDS011;7693;49.266;7.104;2023-10-09T20:55:14;8.35;;;5.65;;
15183;SDS011;7693;49.266;7.104;2023-10-09T20:57:47;8.65;;;5.93;;
15183;SDS011;7693;49.266;7.104;2023-10-09T21:00:15;10.77;;;6.18;;
15183;SDS011;7693;49.266;7.104;2023-10-09T21:02:50;10.57;;;6.38;;
15183;SDS011;7693;49.266;7.104;2023-10-09T21:05:17;6.78;;;5.65;;
15183;SDS011;7693;49.266;7.104;2023-10-09T21:07:44;7.45;;;5.80;;
15183;SDS011;7693;49.266;7.104;2023-10-09T21:10:11;11.52;;;6.15;;
15183;SDS011;7693;49.266;7.104;2023-10-09T21:12:41;6.72;;;6.10;;
15183;SDS011;7693;49.266;7.104;2023-10-09T21:15:10;8.38;;;6.05;;
15183;SDS011;7693;49.266;7.104;2023-10-09T21:17:39;6.80;;;5.25;;